createdAt,value
2023-01-27T00:03:28.347Z,28.60
2023-01-27T00:08:35.795Z,31.80
2023-01-27T00:18:48.545Z,27.30
2023-01-27T00:29:18.920Z,26.60
2023-01-27T00:34:25.937Z,27.40
2023-01-27T00:44:38.997Z,23.20
2023-01-27T00:49:46.359Z,23.60
2023-01-27T00:59:59.982Z,29.20
2023-01-27T01:05:08.530Z,28.90
2023-01-27T01:10:16.408Z,26.60
2023-01-27T01:15:23.798Z,26.60
2023-01-27T01:20:30.963Z,23.10
2023-01-27T01:25:38.817Z,21.80
2023-01-27T01:30:46.019Z,23.20
2023-01-27T01:35:53.407Z,22.20
2023-01-27T01:46:10.768Z,22.20
2023-01-27T01:51:22.900Z,22.80
2023-01-27T01:56:33.740Z,24.70
2023-01-27T02:01:41.305Z,22.00
2023-01-27T02:06:56.373Z,21.00
2023-01-27T02:12:04.902Z,20.70
2023-01-27T02:17:14.788Z,22.30
2023-01-27T02:22:28.718Z,20.50
2023-01-27T02:27:36.334Z,22.20
2023-01-27T02:32:44.637Z,21.20
2023-01-27T02:37:54.318Z,18.60
2023-01-27T02:43:01.834Z,19.40
2023-01-27T02:48:09.542Z,16.20
2023-01-27T02:53:17.115Z,18.70
2023-01-27T02:58:24.756Z,16.70
2023-01-27T03:08:37.935Z,19.60
2023-01-27T03:13:46.254Z,14.70
2023-01-27T03:18:56.744Z,15.30
2023-01-27T03:24:04.205Z,15.70
2023-01-27T03:29:28.863Z,18.90
2023-01-27T03:34:36.171Z,16.90
2023-01-27T03:40:01.269Z,16.50
2023-01-27T03:45:29.069Z,18.50
2023-01-27T03:50:42.632Z,16.80
2023-01-27T03:55:49.903Z,16.60
2023-01-27T04:01:00.226Z,16.00
2023-01-27T04:06:27.191Z,13.10
2023-01-27T04:11:52.556Z,14.80
2023-01-27T04:17:02.329Z,16.80
2023-01-27T04:22:12.150Z,14.10
2023-01-27T04:27:20.611Z,15.40
2023-01-27T04:32:28.125Z,14.90
2023-01-27T04:37:35.630Z,17.00
2023-01-27T04:47:48.748Z,15.00
2023-01-27T04:58:01.961Z,14.90
2023-01-27T05:03:10.548Z,12.00
2023-01-27T05:08:19.062Z,17.90
2023-01-27T05:13:26.312Z,16.80
2023-01-27T05:18:34.555Z,19.50
2023-01-27T05:23:42.889Z,17.90
2023-01-27T05:28:51.345Z,14.90
2023-01-27T05:34:00.270Z,17.80
2023-01-27T05:39:08.973Z,18.10
2023-01-27T05:44:16.800Z,15.70
2023-01-27T05:49:23.927Z,14.60
2023-01-27T05:59:37.677Z,17.60
2023-01-27T06:04:45.605Z,20.30
2023-01-27T06:09:53.569Z,17.50
2023-01-27T06:15:01.580Z,18.20
2023-01-27T06:20:10.973Z,19.70
2023-01-27T06:25:18.831Z,15.30
2023-01-27T06:30:26.671Z,16.90
2023-01-27T06:35:35.063Z,17.80
2023-01-27T06:40:43.288Z,17.90
2023-01-27T06:45:52.547Z,13.90
2023-01-27T06:51:00.441Z,18.40
2023-01-27T06:56:10.703Z,16.60
2023-01-27T07:01:18.806Z,13.50
2023-01-27T07:06:26.373Z,15.20
2023-01-27T07:11:33.753Z,14.90
2023-01-27T07:16:41.474Z,20.20
2023-01-27T07:21:49.044Z,18.70
2023-01-27T07:26:56.355Z,16.10
2023-01-27T07:37:10.176Z,15.40
2023-01-27T07:42:18.577Z,9.70
2023-01-27T07:47:25.767Z,13.80
2023-01-27T07:57:39.245Z,16.40
2023-01-27T08:02:51.327Z,19.00
2023-01-27T08:07:59.590Z,17.50
2023-01-27T08:13:07.130Z,19.00
2023-01-27T08:18:14.624Z,16.40
2023-01-27T08:23:24.591Z,18.70
2023-01-27T08:28:33.929Z,15.20
2023-01-27T08:33:42.759Z,13.70
2023-01-27T08:38:52.550Z,15.20
2023-01-27T08:44:00.435Z,17.50
2023-01-27T08:49:07.935Z,20.50
2023-01-27T08:54:16.053Z,19.80
2023-01-27T08:59:23.219Z,15.90
2023-01-27T09:09:38.214Z,15.10
2023-01-27T09:14:46.186Z,14.80
2023-01-27T09:19:54.891Z,13.30
2023-01-27T09:25:02.077Z,15.60
2023-01-27T09:35:19.813Z,20.20
2023-01-27T09:40:37.445Z,19.80
2023-01-27T09:46:08.985Z,17.50
2023-01-27T09:51:26.167Z,19.60
2023-01-27T09:56:47.063Z,13.00
2023-01-27T10:02:05.796Z,16.70
2023-01-27T10:07:30.269Z,20.70
2023-01-27T10:12:50.216Z,20.70
2023-01-27T10:18:09.523Z,20.80
2023-01-27T10:23:32.834Z,16.70
2023-01-27T10:28:48.114Z,17.30
2023-01-27T10:33:57.173Z,12.40
2023-01-27T10:39:21.556Z,19.70
2023-01-27T10:44:44.693Z,23.80
2023-01-27T10:49:57.657Z,22.60
2023-01-27T10:55:15.185Z,17.70
2023-01-27T11:01:05.077Z,22.20
2023-01-27T11:06:05.738Z,23.60
2023-01-27T11:11:31.054Z,20.70
2023-01-27T11:16:42.004Z,20.80
2023-01-27T11:22:06.741Z,18.80
2023-01-27T11:27:24.137Z,19.70
2023-01-27T11:32:44.246Z,17.00
2023-01-27T11:38:00.662Z,20.90
2023-01-27T11:43:18.983Z,16.00
2023-01-27T11:48:28.000Z,20.50
2023-01-27T11:53:40.454Z,14.80
2023-01-27T11:58:54.807Z,17.40
2023-01-27T12:04:07.981Z,52.90
2023-01-27T12:09:34.675Z,15.80
2023-01-27T12:14:49.060Z,13.20
2023-01-27T12:19:58.886Z,18.30
2023-01-27T12:25:15.574Z,20.90
2023-01-27T12:30:26.399Z,22.10
2023-01-27T12:35:38.357Z,18.50
2023-01-27T12:40:49.432Z,17.50
2023-01-27T12:46:25.170Z,22.40
2023-01-27T12:51:45.302Z,19.80
2023-01-27T12:56:53.857Z,20.50
2023-01-27T13:02:06.710Z,18.80
2023-01-27T13:07:21.673Z,15.60
2023-01-27T13:12:31.608Z,14.50
2023-01-27T13:17:45.794Z,21.40
2023-01-27T13:22:56.208Z,23.90
2023-01-27T13:28:09.183Z,17.50
2023-01-27T13:33:28.324Z,18.50
2023-01-27T13:38:44.691Z,16.60
2023-01-27T13:44:01.445Z,17.50
2023-01-27T13:49:33.737Z,21.10
2023-01-27T13:54:42.946Z,18.90
2023-01-27T14:00:04.673Z,19.20
2023-01-27T14:05:28.380Z,17.90
2023-01-27T14:10:42.526Z,14.60
2023-01-27T14:15:56.301Z,23.00
2023-01-27T14:21:40.706Z,20.80
2023-01-27T14:27:02.724Z,18.30
2023-01-27T14:32:20.991Z,19.70
2023-01-27T14:37:36.804Z,16.60
2023-01-27T14:42:51.892Z,17.40
2023-01-27T14:48:09.844Z,17.50
2023-01-27T14:53:37.879Z,20.40
2023-01-27T15:04:22.390Z,19.10
2023-01-27T15:09:59.606Z,16.20
2023-01-27T15:15:28.803Z,16.30
2023-01-27T15:20:58.431Z,14.30
2023-01-27T15:26:09.338Z,14.10
2023-01-27T15:31:29.139Z,17.50
2023-01-27T15:36:40.392Z,10.80
2023-01-27T15:42:12.897Z,13.00
2023-01-27T15:47:27.081Z,11.90
2023-01-27T15:52:38.273Z,9.80
2023-01-27T15:57:46.529Z,11.40
2023-01-27T16:02:57.262Z,8.20
2023-01-27T16:08:11.961Z,11.20
2023-01-27T16:13:25.516Z,10.10
2023-01-27T16:18:46.057Z,7.70
2023-01-27T16:23:58.392Z,10.90
2023-01-27T16:29:30.115Z,10.50
2023-01-27T16:34:46.467Z,8.30
2023-01-27T16:40:02.852Z,6.30
2023-01-27T16:45:20.320Z,7.30
2023-01-27T16:50:45.971Z,8.20
2023-01-27T16:56:02.645Z,9.00
2023-01-27T17:01:19.825Z,8.20
2023-01-27T17:11:35.808Z,10.80
2023-01-27T17:16:46.008Z,8.80
2023-01-27T17:21:57.056Z,10.40
2023-01-27T17:27:10.293Z,11.80
2023-01-27T17:32:26.253Z,10.80
2023-01-27T17:37:34.752Z,9.20
2023-01-27T17:42:44.890Z,12.50
2023-01-27T17:47:52.814Z,10.50
2023-01-27T17:53:00.212Z,13.50
2023-01-27T17:58:11.510Z,13.80
2023-01-27T18:03:24.035Z,7.60
2023-01-27T18:08:37.323Z,12.30
2023-01-27T18:13:44.585Z,12.00
2023-01-27T18:24:00.418Z,13.20
2023-01-27T18:29:17.564Z,13.10
2023-01-27T18:34:29.694Z,13.10
2023-01-27T18:39:42.415Z,9.80
2023-01-27T18:44:51.839Z,8.10
2023-01-27T18:50:08.783Z,16.90
2023-01-27T18:55:20.476Z,14.40
2023-01-27T19:00:30.532Z,12.00
2023-01-27T19:05:38.875Z,13.70
2023-01-27T19:10:46.631Z,9.60
2023-01-27T19:15:56.298Z,9.70
2023-01-27T19:21:04.370Z,13.10
2023-01-27T19:26:18.541Z,11.10
2023-01-27T19:31:26.288Z,10.80
2023-01-27T19:36:38.517Z,10.40
2023-01-27T19:41:47.008Z,11.20
2023-01-27T19:46:55.917Z,12.40
2023-01-27T19:52:04.352Z,11.90
2023-01-27T19:57:18.734Z,13.30
2023-01-27T20:02:26.185Z,10.80
2023-01-27T20:07:33.848Z,13.60
2023-01-27T20:12:41.302Z,13.10
2023-01-27T20:17:48.527Z,11.60
2023-01-27T20:28:03.034Z,12.90
2023-01-27T20:33:14.938Z,13.60
2023-01-27T20:38:22.878Z,11.50
2023-01-27T20:43:35.182Z,12.70
2023-01-27T20:48:43.202Z,14.90
2023-01-27T20:53:50.826Z,13.80
2023-01-27T20:58:58.311Z,14.80
2023-01-27T21:04:05.733Z,14.90
2023-01-27T21:09:13.226Z,11.20
2023-01-27T21:14:21.560Z,9.70
2023-01-27T21:19:29.280Z,14.30
2023-01-27T21:24:37.185Z,13.10
2023-01-27T21:29:45.410Z,13.70
2023-01-27T21:34:52.896Z,11.40
2023-01-27T21:40:00.226Z,10.80
2023-01-27T21:45:16.584Z,14.90
2023-01-27T21:50:24.140Z,14.40
2023-01-27T21:55:32.515Z,12.80
2023-01-27T22:00:40.437Z,11.50
2023-01-27T22:05:48.750Z,14.20
2023-01-27T22:10:55.934Z,15.00
2023-01-27T22:21:09.696Z,9.50
2023-01-27T22:26:19.794Z,12.80
2023-01-27T22:31:28.826Z,13.10
2023-01-27T22:36:38.087Z,14.00
2023-01-27T22:41:46.703Z,13.90
2023-01-27T22:46:54.295Z,13.30
2023-01-27T22:52:03.241Z,11.80
2023-01-27T22:57:10.677Z,12.70
2023-01-27T23:02:19.213Z,14.30
2023-01-27T23:07:28.924Z,11.80
2023-01-27T23:12:36.706Z,7.80
2023-01-27T23:17:44.854Z,9.80
2023-01-27T23:22:52.985Z,13.50
2023-01-27T23:28:01.223Z,13.40
2023-01-27T23:33:08.874Z,11.50
2023-01-27T23:38:31.434Z,11.20
2023-01-27T23:43:39.968Z,12.80
2023-01-27T23:48:52.464Z,10.30
2023-01-27T23:53:59.728Z,14.20
2023-01-27T23:59:07.034Z,11.40
